Thunder radar more information blitzortung!


Radar de pluja more information rain snow radar


Visita la nostra xarxa de llocs de meteo:

Template documentation
and downloads

And another site



No particular awareness of the weather is required.    There are no Weather-warnings

Pagina Historial Weather Underground text

Diari Resum February 4, 2018 Unitats:  Imperial    Mètric   Tant
« Previous Dia
SegĂźent Dia »
Diari Setmana Mensual Anual Personalitzada
  Maxima: Minima: Media:
Temperatura: TemperatureC °F 4.0 °F 5.4 °F
Punt de rosada: DewpointC °F -1.0 °F 1.2 °F
Humitat: Humidity % 61 % 75 %
Wind Speed: WindSpeedKMH mph 0.0 mph 4.9 mph
RĂ fegues de vent: WindSpeedGustKMH mph - -
Vent:- - ENE
Pression baro: PressurehPa in 1007.0 in -
Precipitacions: 26.4 in    
Historical Graphs
 
 
Dades de taula per February 4, 2018
Temps Temperatura Punt de rosada Pression baro Vent Wind Speed RĂ fegues de vent Humitat Rainfall Rate (Hourly)
TemperatureC °F DewpointC °F PressurehPa in Calm     Humidity % HourlyPrecipMM in
00:04 6.8 °F -0.2 °F 1010.0 in West 3.7 mph 3.7 mph 61 % 0.0 in
00:09 6.7 °F -0.3 °F 1010.0 in WSW 2.3 mph 2.3 mph 61 % 0.0 in
00:14 6.8 °F -0.2 °F 1010.0 in WSW 6.1 mph 6.1 mph 61 % 0.0 in
00:19 6.7 °F -0.3 °F 1010.0 in WSW 3.7 mph 3.7 mph 61 % 0.0 in
00:24 6.5 °F -0.5 °F 1010.0 in SW 1.9 mph   61 % 0.0 in
00:29 6.5 °F -0.5 °F 1010.0 in Calm     61 % 0.0 in
00:34 6.4 °F -0.6 °F 1010.0 in WNW 2.3 mph 2.3 mph 61 % 0.0 in
00:39 6.4 °F -0.6 °F 1010.0 in WNW 5.6 mph 5.6 mph 61 % 0.0 in
00:44 6.4 °F -0.3 °F 1010.0 in WNW 4.2 mph 4.2 mph 62 % 0.0 in
00:49 6.2 °F -0.6 °F 1010.0 in SW 3.7 mph 3.7 mph 62 % 0.0 in
00:54 6.2 °F -0.6 °F 1010.0 in WNW 1.9 mph   62 % 0.0 in
00:59 6.0 °F -0.7 °F 1010.7 in North 4.7 mph 4.7 mph 62 % 0.0 in
01:04 5.9 °F -0.6 °F 1010.7 in NNE 3.7 mph 3.7 mph 63 % 0.0 in
01:09 5.8 °F -0.7 °F 1010.7 in North 1.9 mph 1.9 mph 63 % 0.0 in
01:14 5.7 °F -0.8 °F 1010.0 in WNW 1.9 mph 1.9 mph 63 % 0.0 in
01:19 5.6 °F -0.9 °F 1010.0 in South 2.3 mph   63 % 0.0 in
01:24 5.6 °F -0.9 °F 1010.0 in NNW 1.9 mph   63 % 0.0 in
01:29 5.5 °F -1.0 °F 1010.0 in NNE 1.9 mph 2.3 mph 63 % 0.0 in
01:34 5.4 °F -0.9 °F 1010.0 in WNW 1.4 mph   64 % 0.0 in
01:39 5.5 °F -0.8 °F 1010.0 in NNE 3.7 mph 3.7 mph 64 % 0.0 in
01:44 5.6 °F -0.7 °F 1010.0 in WNW 5.6 mph 5.6 mph 64 % 0.0 in
01:49 5.6 °F -0.7 °F 1010.0 in NNE 3.9 mph 3.9 mph 64 % 0.0 in
01:54 5.6 °F -0.7 °F 1010.0 in NNE 3.5 mph   64 % 0.0 in
01:59 5.6 °F -0.7 °F 1010.0 in NNE 3.7 mph 3.7 mph 64 % 0.0 in
02:04 5.6 °F -0.7 °F 1010.0 in NNE 3.7 mph   64 % 0.0 in
02:09 5.6 °F -0.4 °F 1010.0 in NE 6.4 mph 6.4 mph 65 % 0.0 in
02:14 5.5 °F -0.6 °F 1010.0 in North 3.9 mph 3.9 mph 65 % 0.0 in
02:19 5.5 °F -0.6 °F 1010.0 in NW 3.7 mph 3.7 mph 65 % 0.0 in
02:24 5.5 °F -0.6 °F 1010.0 in NNE 3.7 mph 3.7 mph 65 % 0.0 in
02:29 5.6 °F -0.4 °F 1010.0 in NNE 3.7 mph 3.7 mph 65 % 0.0 in
02:34 5.6 °F -0.4 °F 1010.0 in NNW 5.6 mph 5.6 mph 65 % 0.0 in
02:39 5.7 °F -0.4 °F 1010.0 in NNE 7.4 mph 7.4 mph 65 % 0.0 in
02:44 5.7 °F -0.4 °F 1010.0 in NNE 7.9 mph 7.9 mph 65 % 0.0 in
02:49 5.7 °F -0.2 °F 1010.0 in North 9.3 mph 9.3 mph 66 % 0.0 in
02:54 5.7 °F -0.2 °F 1010.0 in NNE 5.6 mph 5.6 mph 66 % 0.0 in
02:59 5.7 °F -0.2 °F 1010.0 in NNW 2.3 mph   66 % 0.0 in
03:04 5.7 °F -0.4 °F 1010.0 in NNE 3.9 mph 3.9 mph 65 % 0.0 in
03:09 5.6 °F -0.3 °F 1010.0 in NNE 3.7 mph 3.7 mph 66 % 0.0 in
03:14 5.6 °F -0.3 °F 1010.0 in East 3.7 mph 3.7 mph 66 % 0.0 in
03:19 5.7 °F -0.2 °F 1010.0 in North 3.2 mph   66 % 0.0 in
03:24 5.7 °F -0.2 °F 1010.0 in NE 7.4 mph 7.4 mph 66 % 0.0 in
03:29 5.7 °F -0.2 °F 1010.0 in NNE 4.7 mph 4.7 mph 66 % 0.0 in
03:34 5.8 °F -0.1 °F 1010.0 in NNE 7.4 mph 7.4 mph 66 % 0.0 in
03:39 5.7 °F -0.2 °F 1010.0 in NE 3.7 mph 3.7 mph 66 % 0.0 in
03:44 5.7 °F -0.2 °F 1009.0 in NNE 3.2 mph 3.2 mph 66 % 0.0 in
03:49 5.7 °F -0.2 °F 1009.0 in NNW 5.6 mph 5.6 mph 66 % 0.0 in
03:54 5.7 °F -0.2 °F 1009.0 in NE 7.4 mph 7.4 mph 66 % 0.0 in
03:59 5.7 °F -0.2 °F 1010.0 in NNE 6.4 mph 6.4 mph 66 % 0.0 in
04:04 5.7 °F -0.2 °F 1010.0 in NNW 3.7 mph 3.7 mph 66 % 0.0 in
04:09 5.7 °F -0.2 °F 1010.0 in NE 3.7 mph 3.7 mph 66 % 0.0 in
04:14 5.7 °F -0.2 °F 1010.0 in NNE 4.7 mph 4.7 mph 66 % 0.0 in
04:19 5.6 °F -0.3 °F 1010.0 in ENE 3.7 mph 3.7 mph 66 % 0.0 in
04:24 5.7 °F -0.2 °F 1010.0 in NNE 7.4 mph 7.4 mph 66 % 0.0 in
04:29 5.7 °F -0.2 °F 1010.0 in NNE 5.6 mph 5.6 mph 66 % 0.0 in
04:34 5.7 °F -0.2 °F 1010.0 in NE 3.7 mph 3.7 mph 66 % 0.0 in
04:39 5.7 °F -0.2 °F 1010.0 in NE 4.2 mph 4.2 mph 66 % 0.0 in
04:44 5.8 °F -0.1 °F 1010.0 in NNE 9.0 mph 9.0 mph 66 % 0.0 in
04:49 5.8 °F -0.1 °F 1010.0 in NNE 8.7 mph 8.7 mph 66 % 0.0 in
04:54 5.7 °F -0.2 °F 1010.0 in ENE 3.7 mph 3.7 mph 66 % 0.0 in
04:59 5.7 °F -0.2 °F 1009.0 in NNE 3.7 mph 3.7 mph 66 % 0.0 in
05:04 5.6 °F -0.3 °F 1009.0 in WSW 3.7 mph 3.7 mph 66 % 0.0 in
05:09 5.5 °F -0.3 °F 1009.0 in SSW 3.2 mph   66 % 0.0 in
05:14 5.5 °F -0.3 °F 1010.0 in West 5.6 mph 5.6 mph 66 % 0.0 in
05:19 5.5 °F -0.3 °F 1010.0 in ENE 5.6 mph 5.6 mph 66 % 0.0 in
05:24 5.5 °F -0.3 °F 1010.0 in NNE 5.6 mph 5.6 mph 66 % 0.0 in
05:29 5.5 °F -0.3 °F 1010.7 in West 7.4 mph 7.4 mph 66 % 0.0 in
05:34 5.5 °F -0.3 °F 1010.7 in SW 3.7 mph 3.7 mph 66 % 0.0 in
05:39 5.4 °F -0.4 °F 1010.7 in SW 3.7 mph 3.7 mph 66 % 0.0 in
05:44 5.3 °F -0.3 °F 1010.7 in Calm     67 % 0.0 in
05:49 5.2 °F -0.4 °F 1010.7 in SSW 3.7 mph 3.7 mph 67 % 0.0 in
05:54 5.2 °F -0.4 °F 1010.7 in SW 3.7 mph 3.7 mph 67 % 0.0 in
05:59 5.2 °F -0.4 °F 1010.7 in West 1.9 mph   67 % 0.0 in
06:04 5.2 °F -0.4 °F 1010.7 in West 1.9 mph 1.9 mph 67 % 0.0 in
06:09 5.2 °F -0.4 °F 1010.7 in Calm     67 % 0.0 in
06:14 5.2 °F -0.2 °F 1010.7 in Calm     68 % 0.0 in
06:19 5.1 °F -0.3 °F 1010.7 in NNE 3.7 mph 3.7 mph 68 % 0.0 in
06:24 5.1 °F -0.3 °F 1010.7 in NE 3.7 mph 3.7 mph 68 % 0.0 in
06:29 5.0 °F -0.4 °F 1010.7 in Calm     68 % 0.0 in
06:34 5.0 °F -0.4 °F 1010.7 in Calm     68 % 0.0 in
06:39 5.0 °F -0.4 °F 1010.7 in Calm     68 % 0.0 in
06:44 5.0 °F -0.4 °F 1011.7 in Calm     68 % 0.0 in
06:49 5.0 °F -0.2 °F 1011.7 in Calm     69 % 0.0 in
06:54 5.0 °F -0.2 °F 1011.7 in Calm     69 % 0.0 in
06:59 5.0 °F -0.2 °F 1011.7 in Calm     69 % 0.0 in
07:04 4.9 °F -0.3 °F 1011.7 in Calm     69 % 0.0 in
07:09 4.9 °F -0.3 °F 1011.7 in NE 3.7 mph 3.7 mph 69 % 0.0 in
07:14 4.9 °F -0.5 °F 1010.7 in NE 3.7 mph 3.7 mph 68 % 0.0 in
07:19 4.8 °F -0.6 °F 1010.7 in NW 3.7 mph 3.7 mph 68 % 0.0 in
07:24 4.8 °F -0.6 °F 1010.7 in NNW 3.7 mph 3.7 mph 68 % 0.0 in
07:29 4.7 °F -0.7 °F 1011.7 in ENE 5.6 mph 5.6 mph 68 % 0.0 in
07:34 4.7 °F -0.7 °F 1011.7 in ENE 3.7 mph 3.7 mph 68 % 0.0 in
07:39 4.7 °F -0.7 °F 1011.7 in ESE 3.7 mph 3.7 mph 68 % 0.0 in
07:44 4.7 °F -0.9 °F 1011.7 in NNE 5.6 mph 5.6 mph 67 % 0.0 in
07:49 4.7 °F -0.9 °F 1011.7 in NNW 7.4 mph 7.4 mph 67 % 0.0 in
07:54 4.7 °F -0.9 °F 1011.7 in NE 7.4 mph 7.4 mph 67 % 0.0 in
07:59 4.7 °F -0.9 °F 1011.7 in NNW 5.6 mph 5.6 mph 67 % 0.0 in
08:04 4.7 °F -0.9 °F 1011.7 in NNE 4.2 mph 4.2 mph 67 % 0.0 in
08:09 4.7 °F -0.9 °F 1011.7 in ESE 5.6 mph 5.6 mph 67 % 0.0 in
08:14 4.7 °F -0.9 °F 1010.7 in West 5.6 mph 5.6 mph 67 % 0.0 in
08:19 4.7 °F -0.9 °F 1010.7 in NE 5.6 mph 5.6 mph 67 % 0.0 in
08:24 4.7 °F -0.9 °F 1010.7 in SW 5.6 mph 5.6 mph 67 % 0.0 in
08:29 4.8 °F -0.8 °F 1011.7 in ENE 5.6 mph 5.6 mph 67 % 0.0 in
08:34 4.8 °F -0.8 °F 1011.7 in NNW 7.4 mph 7.4 mph 67 % 0.0 in
08:39 4.9 °F -0.7 °F 1011.7 in NE 7.9 mph 7.9 mph 67 % 0.0 in
08:44 4.9 °F -0.7 °F 1011.7 in ENE 5.6 mph 5.6 mph 67 % 0.0 in
08:49 5.0 °F -0.6 °F 1011.7 in NNE 3.9 mph 3.9 mph 67 % 0.0 in
08:54 5.1 °F -0.6 °F 1011.7 in ESE 7.4 mph 7.4 mph 67 % 0.0 in
08:59 5.2 °F -0.4 °F 1011.7 in ENE 5.6 mph 5.6 mph 67 % 0.0 in
09:04 5.2 °F -0.4 °F 1011.7 in NNE 5.6 mph 5.6 mph 67 % 0.0 in
09:09 5.3 °F -0.3 °F 1011.7 in NNW 7.4 mph 7.4 mph 67 % 0.0 in
09:14 5.3 °F -0.3 °F 1011.7 in ENE 5.6 mph 5.6 mph 67 % 0.0 in
09:19 5.5 °F -0.2 °F 1011.7 in NNE 3.7 mph 3.7 mph 67 % 0.0 in
09:24 5.5 °F -0.2 °F 1011.7 in ENE 7.4 mph 7.4 mph 67 % 0.0 in
09:29 5.6 °F -0.1 °F 1011.7 in NE 3.9 mph 3.9 mph 67 % 0.0 in
09:34 5.6 °F -0.1 °F 1011.7 in ENE 3.7 mph 3.7 mph 67 % 0.0 in
09:39 5.6 °F -0.1 °F 1011.7 in NNE 3.7 mph 3.7 mph 67 % 0.0 in
09:44 5.6 °F -0.1 °F 1011.7 in NNW 7.4 mph 7.4 mph 67 % 0.0 in
09:49 5.6 °F -0.1 °F 1011.7 in NNE 7.4 mph 7.4 mph 67 % 0.0 in
09:54 5.6 °F -0.1 °F 1011.7 in NNE 9.3 mph 9.3 mph 67 % 0.0 in
09:59 5.7 °F 0.1 °F 1011.7 in NNE 7.4 mph 7.4 mph 67 % 0.0 in
10:04 5.7 °F 0.2 °F 1011.7 in North 5.6 mph 5.6 mph 68 % 0.0 in
10:09 5.7 °F 0.2 °F 1011.7 in NNE 3.7 mph 3.7 mph 68 % 0.0 in
10:14 5.7 °F 0.2 °F 1011.7 in NNE 7.4 mph 7.4 mph 68 % 0.0 in
10:19 5.7 °F 0.2 °F 1011.7 in ENE 7.4 mph 7.4 mph 68 % 0.0 in
10:24 5.7 °F 0.2 °F 1011.7 in NE 3.9 mph 3.9 mph 68 % 0.0 in
10:30 5.7 °F 0.2 °F 1011.7 in NNE 9.3 mph 9.3 mph 68 % 0.0 in
10:34 5.6 °F 0.2 °F 1011.7 in ENE 7.4 mph 7.4 mph 68 % 0.0 in
10:39 5.6 °F 0.2 °F 1011.7 in ENE 3.9 mph 4.7 mph 68 % 0.0 in
10:44 5.6 °F 0.3 °F 1012.8 in ENE 7.9 mph 7.9 mph 69 % 0.0 in
10:49 5.5 °F 0.3 °F 1012.8 in NNE 9.3 mph 9.3 mph 69 % 0.0 in
10:54 5.5 °F 0.3 °F 1012.8 in NNE 11.1 mph 11.1 mph 69 % 0.0 in
10:59 5.5 °F 0.4 °F 1012.8 in NNE 7.4 mph 7.4 mph 70 % 0.0 in
11:04 5.5 °F 0.4 °F 1012.8 in NNE 11.1 mph 11.1 mph 70 % 0.0 in
11:09 5.5 °F 0.4 °F 1012.8 in North 7.4 mph 7.4 mph 70 % 0.0 in
11:15 5.6 °F 0.6 °F 1011.7 in ENE 5.6 mph 5.6 mph 70 % 0.0 in
11:20 5.6 °F 0.6 °F 1011.7 in NNE 6.1 mph 6.1 mph 70 % 0.0 in
11:25 5.6 °F 0.8 °F 1011.7 in NNE 9.3 mph 9.3 mph 71 % 0.0 in
11:30 5.6 °F 0.8 °F 1011.7 in NNE 7.4 mph 7.4 mph 71 % 0.0 in
11:35 5.6 °F 0.8 °F 1011.7 in NNE 4.2 mph 4.2 mph 71 % 0.0 in
11:40 5.5 °F 0.8 °F 1011.7 in NE 9.3 mph 9.3 mph 72 % 0.0 in
11:45 5.6 °F 0.9 °F 1012.8 in NE 5.6 mph 5.6 mph 72 % 0.0 in
11:50 5.6 °F 0.9 °F 1012.8 in ENE 7.4 mph 7.4 mph 72 % 0.0 in
11:55 5.5 °F 1.1 °F 1012.8 in NNE 5.6 mph 5.6 mph 73 % 0.0 in
12:00 5.5 °F 1.1 °F 1011.7 in NE 6.4 mph 6.4 mph 73 % 0.0 in
12:05 5.6 °F 1.1 °F 1011.7 in NNE 5.6 mph 5.6 mph 73 % 0.0 in
12:10 5.5 °F 1.2 °F 1011.7 in NNE 3.9 mph 3.9 mph 74 % 0.0 in
12:15 5.5 °F 1.2 °F 1011.7 in NE 4.2 mph 4.2 mph 74 % 0.0 in
12:20 5.5 °F 1.4 °F 1011.7 in Calm     75 % 0.0 in
12:25 5.6 °F 1.5 °F 1011.7 in NNE 3.7 mph 3.7 mph 75 % 0.0 in
12:30 5.6 °F 1.7 °F 1012.8 in NE 1.9 mph   76 % 0.0 in
12:35 5.6 °F 1.7 °F 1012.8 in NNE 3.7 mph 3.7 mph 76 % 0.0 in
12:40 5.7 °F 1.8 °F 1012.8 in NNE 1.9 mph 2.3 mph 76 % 0.0 in
12:45 5.7 °F 2.0 °F 1011.7 in ENE 3.7 mph   77 % 0.0 in
12:50 5.7 °F 2.0 °F 1011.7 in NNE 4.2 mph 4.2 mph 77 % 0.0 in
12:55 5.7 °F 2.0 °F 1011.7 in North 5.0 mph 5.0 mph 77 % 1.0 in
13:00 5.7 °F 2.0 °F 1011.7 in ENE 3.7 mph 3.7 mph 77 % 1.0 in
13:05 5.7 °F 2.0 °F 1011.7 in NNE 7.4 mph 7.4 mph 77 % 1.0 in
13:10 5.7 °F 2.0 °F 1011.7 in NNE 7.4 mph 7.4 mph 77 % 1.0 in
13:15 5.7 °F 2.0 °F 1011.7 in NNE 5.6 mph 5.6 mph 77 % 1.0 in
13:20 5.7 °F 2.2 °F 1011.7 in ENE 5.6 mph 5.6 mph 78 % 1.0 in
13:25 5.6 °F 2.1 °F 1011.7 in NNE 7.4 mph 7.4 mph 78 % 1.0 in
13:30 5.6 °F 2.1 °F 1010.7 in NNE 5.6 mph 5.6 mph 78 % 1.0 in
13:35 5.6 °F 2.2 °F 1010.7 in NNE 4.2 mph 4.2 mph 79 % 2.0 in
13:40 5.6 °F 2.2 °F 1010.7 in ENE 5.6 mph 5.6 mph 79 % 2.0 in
13:45 5.7 °F 2.3 °F 1011.7 in NNE 5.6 mph 5.6 mph 79 % 2.0 in
13:50 5.7 °F 2.3 °F 1011.7 in NNE 5.6 mph 5.6 mph 79 % 2.0 in
13:55 5.7 °F 2.3 °F 1011.7 in NNE 5.8 mph 5.8 mph 79 % 1.0 in
14:00 5.8 °F 2.6 °F 1011.7 in NE 5.6 mph 5.6 mph 80 % 1.0 in
14:05 5.8 °F 2.6 °F 1011.7 in NNE 9.3 mph 9.3 mph 80 % 1.0 in
14:10 5.9 °F 2.7 °F 1011.7 in NNE 5.6 mph 5.8 mph 80 % 1.0 in
14:15 5.9 °F 2.7 °F 1011.7 in NNE 7.4 mph 7.4 mph 80 % 1.0 in
14:20 6.0 °F 2.8 °F 1011.7 in NNE 5.6 mph 5.6 mph 80 % 2.0 in
14:25 6.0 °F 2.8 °F 1011.7 in NE 7.4 mph 7.4 mph 80 % 2.0 in
14:30 6.0 °F 2.8 °F 1010.7 in NNE 6.4 mph 6.4 mph 80 % 2.0 in
14:35 6.0 °F 2.8 °F 1010.7 in NE 9.5 mph 10.0 mph 80 % 1.0 in
14:40 6.0 °F 2.8 °F 1010.7 in NNE 9.0 mph 9.0 mph 80 % 1.0 in
14:45 6.0 °F 2.8 °F 1011.7 in NNE 7.4 mph 7.4 mph 80 % 2.0 in
14:50 6.0 °F 3.0 °F 1011.7 in NNE 5.6 mph 5.6 mph 81 % 2.0 in
14:55 6.0 °F 3.0 °F 1011.7 in NNE 5.6 mph 5.6 mph 81 % 2.0 in
15:00 6.1 °F 3.1 °F 1010.0 in ENE 5.6 mph 5.6 mph 81 % 2.0 in
15:05 6.1 °F 3.1 °F 1010.0 in NNE 7.4 mph 7.4 mph 81 % 2.0 in
15:10 6.1 °F 3.1 °F 1010.0 in ENE 5.0 mph 5.0 mph 81 % 2.0 in
15:15 6.0 °F 3.0 °F 1010.7 in NNE 9.3 mph 9.3 mph 81 % 3.0 in
15:20 6.0 °F 3.0 °F 1010.7 in East 7.4 mph 7.4 mph 81 % 2.0 in
15:25 6.0 °F 3.0 °F 1010.7 in NNE 6.4 mph 6.4 mph 81 % 2.0 in
15:30 6.0 °F 3.0 °F 1010.7 in ENE 9.3 mph 9.3 mph 81 % 2.0 in
15:35 6.0 °F 3.0 °F 1010.7 in NNE 9.3 mph 9.3 mph 81 % 2.0 in
15:40 6.0 °F 3.0 °F 1010.7 in NE 7.6 mph 7.6 mph 81 % 2.0 in
15:45 6.0 °F 3.0 °F 1010.7 in ENE 9.5 mph 9.5 mph 81 % 1.0 in
15:50 6.0 °F 3.0 °F 1010.7 in NNE 10.0 mph 10.0 mph 81 % 1.0 in
15:55 6.0 °F 3.0 °F 1010.7 in NNE 9.3 mph 9.3 mph 81 % 2.3 in
16:00 6.0 °F 3.0 °F 1010.7 in NNE 9.3 mph 9.3 mph 81 % 2.3 in
16:05 6.0 °F 3.2 °F 1010.7 in ENE 9.3 mph 9.3 mph 82 % 2.3 in
16:10 6.0 °F 3.2 °F 1010.7 in ENE 8.7 mph 8.7 mph 82 % 3.3 in
16:15 5.9 °F 3.1 °F 1011.7 in NNE 10.0 mph 10.0 mph 82 % 2.3 in
16:20 5.9 °F 3.1 °F 1011.7 in NNE 7.4 mph 7.4 mph 82 % 3.3 in
16:25 5.9 °F 3.1 °F 1011.7 in ENE 7.4 mph 7.4 mph 82 % 3.3 in
16:30 5.9 °F 3.2 °F 1011.7 in ENE 5.6 mph 5.6 mph 83 % 4.3 in
16:35 5.9 °F 3.2 °F 1011.7 in ENE 2.3 mph   83 % 5.3 in
16:40 5.9 °F 3.2 °F 1011.7 in ESE 3.7 mph 4.2 mph 83 % 5.3 in
16:45 5.9 °F 3.2 °F 1011.7 in NNE 7.4 mph 7.4 mph 83 % 6.3 in
16:50 5.9 °F 3.2 °F 1011.7 in ENE 7.4 mph 7.4 mph 83 % 6.3 in
16:55 5.9 °F 3.2 °F 1011.7 in East 7.4 mph 7.4 mph 83 % 5.1 in
17:00 5.9 °F 3.2 °F 1011.7 in East 5.6 mph 5.6 mph 83 % 6.1 in
17:05 5.9 °F 3.2 °F 1011.7 in ESE 5.6 mph 5.6 mph 83 % 6.1 in
17:10 5.9 °F 3.2 °F 1011.7 in ESE 1.9 mph   83 % 5.1 in
17:15 6.0 °F 3.5 °F 1011.7 in ENE 3.5 mph 3.5 mph 84 % 5.3 in
17:20 5.9 °F 3.4 °F 1011.7 in Calm     84 % 5.3 in
17:25 5.9 °F 3.4 °F 1011.7 in ESE 7.4 mph 7.4 mph 84 % 5.3 in
17:30 5.9 °F 3.4 °F 1011.7 in NNE 3.9 mph 3.9 mph 84 % 4.3 in
17:35 5.8 °F 3.3 °F 1011.7 in ESE 9.7 mph 9.7 mph 84 % 3.3 in
17:40 5.8 °F 3.1 °F 1011.7 in East 5.6 mph 5.6 mph 83 % 4.3 in
17:45 5.7 °F 3.1 °F 1011.7 in ENE 7.4 mph 7.4 mph 83 % 3.3 in
17:50 5.6 °F 2.9 °F 1011.7 in NE 5.8 mph 5.8 mph 83 % 4.3 in
17:55 5.6 °F 3.1 °F 1011.7 in North 5.8 mph 5.8 mph 84 % 4.3 in
18:00 5.5 °F 3.0 °F 1011.7 in NE 3.9 mph 3.9 mph 84 % 3.3 in
18:05 5.5 °F 3.0 °F 1011.7 in NNE 3.7 mph 3.7 mph 84 % 3.3 in
18:10 5.5 °F 3.0 °F 1011.7 in NNE 5.6 mph 5.6 mph 84 % 3.3 in
18:15 5.5 °F 3.0 °F 1011.7 in ENE 1.9 mph 2.6 mph 84 % 2.0 in
18:20 5.4 °F 2.9 °F 1011.7 in ENE 2.3 mph 2.3 mph 84 % 2.0 in
18:25 5.4 °F 2.9 °F 1011.7 in ENE 3.7 mph 3.7 mph 84 % 2.0 in
18:30 5.4 °F 2.9 °F 1010.7 in NNE 5.8 mph 5.8 mph 84 % 2.0 in
18:35 5.4 °F 2.9 °F 1010.7 in ENE 7.4 mph 7.4 mph 84 % 2.0 in
18:40 5.4 °F 2.9 °F 1010.7 in NE 5.6 mph 5.6 mph 84 % 1.0 in
18:45 5.3 °F 2.7 °F 1011.7 in ENE 5.6 mph 5.6 mph 83 % 1.0 in
18:50 5.3 °F 2.7 °F 1011.7 in NE 7.4 mph 7.4 mph 83 % 0.0 in
18:55 5.3 °F 2.7 °F 1011.7 in NE 7.4 mph 7.4 mph 83 % 0.0 in
19:00 5.3 °F 2.7 °F 1010.0 in NNE 9.3 mph 9.3 mph 83 % 0.0 in
19:05 5.3 °F 2.7 °F 1010.0 in NNE 9.3 mph 9.3 mph 83 % 0.0 in
19:10 5.3 °F 2.7 °F 1010.0 in NE 7.4 mph 7.4 mph 83 % 0.0 in
19:15 5.3 °F 2.7 °F 1010.7 in ENE 9.3 mph 9.3 mph 83 % 0.0 in
19:20 5.3 °F 2.8 °F 1010.7 in NE 7.4 mph 7.4 mph 84 % 0.0 in
19:25 5.3 °F 2.8 °F 1010.7 in NNE 5.6 mph 6.1 mph 84 % 0.0 in
19:30 5.3 °F 2.8 °F 1010.7 in NNE 5.6 mph 5.6 mph 84 % 0.0 in
19:35 5.3 °F 2.8 °F 1010.7 in NNE 5.6 mph 5.6 mph 84 % 0.0 in
19:40 5.4 °F 2.9 °F 1010.7 in NNE 4.7 mph 4.7 mph 84 % 4.3 in
19:45 5.4 °F 2.9 °F 1010.7 in NNE 5.6 mph 5.6 mph 84 % 4.3 in
19:50 5.4 °F 2.9 °F 1010.7 in NE 3.7 mph 3.7 mph 84 % 4.3 in
19:55 5.3 °F 2.8 °F 1010.7 in NNE 5.6 mph 5.6 mph 84 % 4.3 in
20:00 5.3 °F 2.8 °F 1010.7 in NNE 5.6 mph 5.6 mph 84 % 5.1 in
20:05 5.3 °F 2.8 °F 1010.7 in NE 3.7 mph 3.7 mph 84 % 5.1 in
20:10 5.2 °F 2.7 °F 1010.7 in NE 5.6 mph 5.6 mph 84 % 5.1 in
20:15 5.2 °F 2.7 °F 1010.7 in NE 3.7 mph 4.2 mph 84 % 5.1 in
20:20 5.2 °F 2.7 °F 1010.7 in Calm     84 % 5.1 in
20:25 5.1 °F 2.6 °F 1010.7 in NNE 4.2 mph   84 % 5.1 in
20:30 5.1 °F 2.6 °F 1010.0 in ENE 3.7 mph 3.7 mph 84 % 5.1 in
20:35 5.0 °F 2.5 °F 1010.0 in NNE 4.2 mph 4.2 mph 84 % 5.1 in
20:40 5.0 °F 2.5 °F 1010.0 in NNE 3.7 mph 3.7 mph 84 % 0.8 in
20:45 5.0 °F 2.5 °F 1010.0 in North 3.7 mph 3.7 mph 84 % 0.8 in
20:50 4.9 °F 2.4 °F 1010.0 in NNE 5.6 mph 5.6 mph 84 % 0.8 in
20:55 4.8 °F 2.3 °F 1010.0 in NNE 5.6 mph 5.6 mph 84 % 0.8 in
21:00 4.8 °F 2.3 °F 1010.0 in NE 6.1 mph 6.1 mph 84 % 0.0 in
21:05 4.8 °F 2.3 °F 1010.0 in NNE 7.4 mph 7.4 mph 84 % 0.0 in
21:10 4.8 °F 2.3 °F 1010.0 in NE 5.6 mph   84 % 0.0 in
21:15 4.8 °F 2.3 °F 1010.0 in NE 5.6 mph 5.6 mph 84 % 0.0 in
21:20 4.7 °F 2.2 °F 1010.0 in NNE 3.9 mph 3.9 mph 84 % 0.0 in
21:25 4.7 °F 2.2 °F 1010.0 in NNE 3.7 mph   84 % 0.0 in
21:30 4.0 °F 1.9 °F 1008.0 in NNE 1.6 mph 6.4 mph 86 % 0.0 in
21:31 4.7 °F 2.2 °F 1010.7 in NNE 3.7 mph 3.7 mph 84 % 0.0 in
21:36 4.7 °F 2.2 °F 1010.7 in NNE 3.7 mph 3.7 mph 84 % 0.0 in
21:40 4.1 °F 1.9 °F 1008.0 in NNE 3.2 mph 8.0 mph 86 % 0.0 in
21:41 4.7 °F 2.4 °F 1010.7 in NNE 1.9 mph 1.9 mph 85 % 0.0 in
21:46 4.7 °F 2.4 °F 1010.7 in NNE 3.7 mph 3.7 mph 85 % 0.0 in
21:50 4.4 °F 2.4 °F 1008.0 in NE 3.2 mph 6.4 mph 87 % 0.0 in
21:51 4.7 °F 2.4 °F 1010.7 in NE 7.4 mph 7.4 mph 85 % 0.0 in
21:56 4.7 °F 2.4 °F 1010.7 in NNE 3.7 mph   85 % 0.0 in
22:00 4.5 °F 2.5 °F 1008.0 in NE 3.2 mph 4.8 mph 87 % 0.0 in
22:01 4.6 °F 2.3 °F 1010.7 in NE 6.1 mph 6.1 mph 85 % 0.0 in
22:06 4.6 °F 2.3 °F 1010.7 in NE 5.6 mph 5.6 mph 85 % 0.0 in
22:10 4.5 °F 2.5 °F 1008.0 in NE 1.6 mph 3.2 mph 87 % 0.0 in
22:11 4.6 °F 2.3 °F 1010.7 in NNE 3.7 mph 3.7 mph 85 % 0.0 in
22:16 4.6 °F 2.3 °F 1010.7 in ENE 3.7 mph 3.7 mph 85 % 0.0 in
22:20 4.4 °F 2.4 °F 1008.0 in NNE 4.8 mph 4.8 mph 87 % 0.0 in
22:21 4.6 °F 2.3 °F 1010.7 in ENE 1.9 mph   85 % 0.0 in
22:26 4.7 °F 2.4 °F 1010.7 in NNE 2.3 mph   85 % 4.3 in
22:30 4.5 °F 2.5 °F 1008.0 in NNE 4.8 mph 4.8 mph 87 % 0.0 in
22:31 4.7 °F 2.4 °F 1011.7 in NNE 1.9 mph   85 % 4.3 in
22:36 4.7 °F 2.4 °F 1011.7 in NE 1.9 mph   85 % 5.3 in
22:40 4.6 °F 2.6 °F 1007.0 in NE 4.8 mph 8.0 mph 87 % 0.0 in
22:41 4.7 °F 2.4 °F 1011.7 in NNE 1.9 mph   85 % 5.3 in
22:46 4.7 °F 2.4 °F 1010.7 in Calm     85 % 5.3 in
22:50 4.5 °F 2.5 °F 1007.0 in NNE 4.8 mph 8.0 mph 87 % 0.0 in
22:51 4.7 °F 2.4 °F 1010.7 in North 1.9 mph   85 % 5.3 in
22:56 4.6 °F 2.3 °F 1010.7 in Calm     85 % 5.3 in
23:00 4.7 °F 2.7 °F 1007.0 in NNE 4.8 mph 9.7 mph 87 % 0.0 in
23:01 4.6 °F 2.3 °F 1010.7 in WNW 3.7 mph 3.7 mph 85 % 5.3 in
23:06 4.7 °F 2.4 °F 1010.7 in Calm     85 % 5.3 in
23:10 4.8 °F 3.0 °F 1007.0 in NNE 3.2 mph 4.8 mph 88 % 0.0 in
23:11 4.7 °F 2.4 °F 1010.7 in Calm     85 % 5.3 in
23:16 4.7 °F 2.4 °F 1011.7 in WSW 3.7 mph 3.7 mph 85 % 5.3 in
23:21 4.7 °F 2.4 °F 1011.7 in SW 3.7 mph   85 % 5.3 in
23:26 4.7 °F 2.4 °F 1011.7 in Calm     85 % 1.0 in
23:30 4.8 °F 3.0 °F 1008.0 in WSW 1.6 mph 4.8 mph 88 % 0.0 in
23:31 4.6 °F 2.3 °F 1010.7 in NW 1.9 mph 1.9 mph 85 % 1.0 in
23:36 4.7 °F 2.4 °F 1010.7 in NNE 5.6 mph 5.6 mph 85 % 0.0 in
23:40 4.8 °F 3.0 °F 1007.0 in North 1.6 mph 1.6 mph 88 % 0.0 in
23:41 4.7 °F 2.4 °F 1010.7 in ENE 5.6 mph 5.6 mph 85 % 0.0 in
23:46 4.6 °F 2.3 °F 1010.0 in NNE 5.8 mph 5.8 mph 85 % 0.0 in
23:50 4.8 °F 3.0 °F 1007.0 in NNE 4.8 mph 6.4 mph 88 % 0.0 in
23:51 4.6 °F 2.3 °F 1010.0 in NNE 5.6 mph 5.6 mph 85 % 0.0 in
23:56 4.5 °F 2.2 °F 1010.0 in NNE 3.7 mph 3.7 mph 85 % 0.0 in
Meteo Sesrovires
Elogis d' Weather Underground - 1.75 mb

Guio original per  Jim McMurry - jmcmurry@mwt.net Adaptat per a la plantilla per  Wim van der Kuil - Leuven-Template.eu

Trobareu la nostra informacio del temps tambe a:

Weather Underground

AWEKAS